Time,TemperatureF,DewpointF,PressureIn,WindDirection,WindDirectionDegrees,WindSpeedMPH,WindSpeedGustMPH,Humidity,HourlyPrecipIn,Conditions,Clouds,dailyrainin,SoftwareType,DateUTC
2013-07-06 00:01:00,68.6,66.8,30.15,ENE,76,0.0,0.0,94,0.00,,,0.36,Wunderground v.1.15,2013-07-06 04:01:00,
2013-07-06 00:03:00,68.6,66.8,30.15,ENE,76,0.0,0.0,94,0.00,,,0.00,Wunderground v.1.15,2013-07-06 04:03:00,
2013-07-06 00:04:00,68.6,66.8,30.15,ENE,76,0.0,0.0,94,0.00,,,0.00,Wunderground v.1.15,2013-07-06 04:04:00,
2013-07-06 00:06:00,68.6,66.8,30.15,ENE,76,0.0,0.0,94,0.00,,,0.00,Wunderground v.1.15,2013-07-06 04:06:00,
2013-07-06 00:11:00,68.6,66.8,30.16,ENE,76,0.0,0.0,94,0.81,,,0.05,Wunderground v.1.15,2013-07-06 04:11:00,
2013-07-06 00:12:00,68.6,66.8,30.16,ENE,76,0.0,0.0,94,0.72,,,0.07,Wunderground v.1.15,2013-07-06 04:12:00,
2013-07-06 00:17:00,68.6,66.8,30.16,ENE,76,0.0,0.0,94,0.46,,,0.11,Wunderground v.1.15,2013-07-06 04:17:00,
2013-07-06 00:23:00,68.6,66.8,30.16,ENE,76,0.0,0.0,94,0.88,,,0.17,Wunderground v.1.15,2013-07-06 04:23:00,
2013-07-06 00:28:00,68.6,66.8,30.15,ENE,76,0.0,0.0,94,0.41,,,0.23,Wunderground v.1.15,2013-07-06 04:28:00,
2013-07-06 00:34:00,68.6,66.8,30.15,ENE,76,0.0,2.0,94,0.94,,,0.29,Wunderground v.1.15,2013-07-06 04:34:00,
2013-07-06 00:40:00,68.6,66.8,30.15,East,80,0.0,0.0,94,0.20,,,0.31,Wunderground v.1.15,2013-07-06 04:40:00,
2013-07-06 00:46:00,68.5,66.7,30.15,North,355,0.0,4.0,94,0.19,,,0.33,Wunderground v.1.15,2013-07-06 04:46:00,
2013-07-06 00:51:00,68.5,66.7,30.15,North,355,0.0,1.0,94,0.17,,,0.34,Wunderground v.1.15,2013-07-06 04:51:00,
2013-07-06 00:56:00,68.5,67.0,30.15,NNE,21,3.0,4.0,95,0.13,,,0.35,Wunderground v.1.15,2013-07-06 04:56:00,
2013-07-06 01:01:00,68.6,67.1,30.15,NNE,21,0.0,1.0,95,0.07,,,0.36,Wunderground v.1.15,2013-07-06 05:01:00,
2013-07-06 01:07:00,68.6,67.1,30.15,NNE,24,0.0,1.0,95,0.07,,,0.36,Wunderground v.1.15,2013-07-06 05:07:00,
2013-07-06 01:13:00,68.3,66.5,30.15,NE,37,0.0,3.0,94,0.04,,,0.36,Wunderground v.1.15,2013-07-06 05:13:00,
2013-07-06 01:19:00,68.2,66.4,30.14,NE,49,0.0,3.0,94,0.00,,,0.36,Wunderground v.1.15,2013-07-06 05:19:00,
2013-07-06 01:24:00,68.1,66.3,30.14,NE,51,0.0,1.0,94,0.00,,,0.36,Wunderground v.1.15,2013-07-06 05:24:00,
2013-07-06 01:29:00,68.0,66.2,30.14,NE,51,0.0,1.0,94,0.00,,,0.36,Wunderground v.1.15,2013-07-06 05:29:00,
2013-07-06 01:34:00,67.9,66.1,30.14,ENE,65,0.0,1.0,94,0.00,,,0.36,Wunderground v.1.15,2013-07-06 05:34:00,
2013-07-06 01:40:00,67.7,65.9,30.14,ENE,65,0.0,0.0,94,0.00,,,0.36,Wunderground v.1.15,2013-07-06 05:40:00,
2013-07-06 01:45:00,67.6,65.8,30.14,SE,130,0.0,1.0,94,0.00,,,0.36,Wunderground v.1.15,2013-07-06 05:45:00,
2013-07-06 01:50:00,67.6,65.8,30.13,SE,130,0.0,0.0,94,0.00,,,0.36,Wunderground v.1.15,2013-07-06 05:50:00,
2013-07-06 01:55:00,67.5,65.7,30.14,SE,128,0.0,0.0,94,0.00,,,0.36,Wunderground v.1.15,2013-07-06 05:55:00,
2013-07-06 02:00:00,67.4,65.6,30.14,SE,128,0.0,0.0,94,0.00,,,0.36,Wunderground v.1.15,2013-07-06 06:00:00,
2013-07-06 02:05:00,67.3,65.5,30.14,SE,128,0.0,0.0,94,0.00,,,0.36,Wunderground v.1.15,2013-07-06 06:05:00,
2013-07-06 02:10:00,67.3,65.5,30.13,SE,128,0.0,0.0,94,0.00,,,0.36,Wunderground v.1.15,2013-07-06 06:10:00,
2013-07-06 02:15:00,67.3,65.5,30.13,SE,128,0.0,0.0,94,0.00,,,0.36,Wunderground v.1.15,2013-07-06 06:15:00,
2013-07-06 02:20:00,67.2,65.4,30.13,SE,128,0.0,0.0,94,0.00,,,0.36,Wunderground v.1.15,2013-07-06 06:20:00,
2013-07-06 02:25:00,67.2,65.4,30.13,SE,128,0.0,0.0,94,0.00,,,0.36,Wunderground v.1.15,2013-07-06 06:25:00,
2013-07-06 02:30:00,67.1,65.3,30.13,SE,128,0.0,0.0,94,0.00,,,0.36,Wunderground v.1.15,2013-07-06 06:30:00,
2013-07-06 02:35:00,67.1,65.3,30.13,SE,128,0.0,0.0,94,0.00,,,0.37,Wunderground v.1.15,2013-07-06 06:35:00,
2013-07-06 02:40:00,67.1,65.3,30.13,SE,128,0.0,1.0,94,0.00,,,0.37,Wunderground v.1.15,2013-07-06 06:40:00,
2013-07-06 02:45:00,67.1,65.6,30.13,SE,128,0.0,0.0,95,0.00,,,0.37,Wunderground v.1.15,2013-07-06 06:45:00,
2013-07-06 02:50:00,67.1,65.6,30.12,SE,128,0.0,0.0,95,0.00,,,0.37,Wunderground v.1.15,2013-07-06 06:50:00,
2013-07-06 02:55:00,67.1,65.6,30.12,SE,128,0.0,0.0,95,0.00,,,0.37,Wunderground v.1.15,2013-07-06 06:55:00,
2013-07-06 03:00:00,67.1,65.6,30.12,SE,128,0.0,0.0,95,0.00,,,0.37,Wunderground v.1.15,2013-07-06 07:00:00,
2013-07-06 03:05:00,67.1,65.6,30.12,SE,128,0.0,0.0,95,0.47,,,0.42,Wunderground v.1.15,2013-07-06 07:05:00,
2013-07-06 03:11:00,67.1,65.6,30.12,SE,128,0.0,0.0,95,0.18,,,0.43,Wunderground v.1.15,2013-07-06 07:11:00,
2013-07-06 03:16:00,67.2,65.7,30.12,SE,128,0.0,1.0,95,0.08,,,0.44,Wunderground v.1.15,2013-07-06 07:16:00,
2013-07-06 03:21:00,67.2,65.7,30.11,SE,128,0.0,0.0,95,0.08,,,0.44,Wunderground v.1.15,2013-07-06 07:21:00,
2013-07-06 03:26:00,67.2,65.7,30.12,SE,128,0.0,1.0,95,0.05,,,0.44,Wunderground v.1.15,2013-07-06 07:26:00,
2013-07-06 03:31:00,67.2,65.7,30.12,SE,128,0.0,0.0,95,0.04,,,0.44,Wunderground v.1.15,2013-07-06 07:31:00,
2013-07-06 03:36:00,67.2,65.7,30.12,SE,128,0.0,1.0,95,0.40,,,0.47,Wunderground v.1.15,2013-07-06 07:36:00,
2013-07-06 03:41:00,67.2,65.7,30.12,SE,128,0.0,0.0,95,0.19,,,0.49,Wunderground v.1.15,2013-07-06 07:41:00,
2013-07-06 03:47:00,67.2,65.7,30.12,SE,128,0.0,0.0,95,0.16,,,0.50,Wunderground v.1.15,2013-07-06 07:47:00,
2013-07-06 03:52:00,67.2,65.7,30.12,SE,128,0.0,0.0,95,0.14,,,0.51,Wunderground v.1.15,2013-07-06 07:52:00,
2013-07-06 03:57:00,67.3,65.8,30.11,SE,128,0.0,0.0,95,0.06,,,0.51,Wunderground v.1.15,2013-07-06 07:57:00,
2013-07-06 04:02:00,67.3,65.8,30.12,SE,129,0.0,0.0,95,0.04,,,0.51,Wunderground v.1.15,2013-07-06 08:02:00,
2013-07-06 04:07:00,67.3,65.8,30.12,SE,128,0.0,1.0,95,0.00,,,0.51,Wunderground v.1.15,2013-07-06 08:07:00,
2013-07-06 04:12:00,67.4,65.9,30.12,SE,128,0.0,1.0,95,0.00,,,0.51,Wunderground v.1.15,2013-07-06 08:12:00,
2013-07-06 04:17:00,67.4,65.9,30.12,SE,128,0.0,1.0,95,0.00,,,0.52,Wunderground v.1.15,2013-07-06 08:17:00,
2013-07-06 04:22:00,67.4,65.9,30.12,SE,128,0.0,0.0,95,0.14,,,0.53,Wunderground v.1.15,2013-07-06 08:22:00,
2013-07-06 04:27:00,67.4,65.9,30.12,SE,128,0.0,1.0,95,0.06,,,0.53,Wunderground v.1.15,2013-07-06 08:27:00,
2013-07-06 04:32:00,67.4,65.9,30.12,SE,128,0.0,0.0,95,0.05,,,0.54,Wunderground v.1.15,2013-07-06 08:32:00,
2013-07-06 04:37:00,67.4,65.9,30.12,SE,128,0.0,0.0,95,0.05,,,0.54,Wunderground v.1.15,2013-07-06 08:37:00,
2013-07-06 04:43:00,67.4,65.9,30.11,ESE,120,0.0,2.0,95,0.05,,,0.54,Wunderground v.1.15,2013-07-06 08:43:00,
2013-07-06 04:48:00,67.4,65.9,30.11,ESE,106,0.0,4.0,95,0.04,,,0.54,Wunderground v.1.15,2013-07-06 08:48:00,
2013-07-06 04:52:00,67.3,65.8,30.11,ESE,107,0.0,0.0,95,0.00,,,0.55,Wunderground v.1.15,2013-07-06 08:52:00,
2013-07-06 04:58:00,67.3,65.8,30.11,ESE,107,0.0,2.0,95,0.12,,,0.56,Wunderground v.1.15,2013-07-06 08:58:00,
2013-07-06 05:03:00,67.3,65.8,30.12,ESE,108,0.0,0.0,95,0.12,,,0.57,Wunderground v.1.15,2013-07-06 09:03:00,
2013-07-06 05:08:00,67.3,65.8,30.11,ESE,108,0.0,0.0,95,0.10,,,0.57,Wunderground v.1.15,2013-07-06 09:08:00,
2013-07-06 05:13:00,67.3,65.8,30.11,ESE,108,0.0,0.0,95,0.06,,,0.57,Wunderground v.1.15,2013-07-06 09:13:00,
2013-07-06 05:18:00,67.3,65.8,30.11,ESE,104,0.0,2.0,95,0.04,,,0.57,Wunderground v.1.15,2013-07-06 09:18:00,
2013-07-06 05:23:00,67.3,65.8,30.11,ESE,104,0.0,2.0,95,0.00,,,0.58,Wunderground v.1.15,2013-07-06 09:23:00,
2013-07-06 05:28:00,67.2,65.7,30.11,ESE,104,0.0,2.0,95,0.00,,,0.58,Wunderground v.1.15,2013-07-06 09:28:00,
2013-07-06 05:33:00,67.2,65.7,30.12,ESE,104,0.0,0.0,95,0.00,,,0.58,Wunderground v.1.15,2013-07-06 09:33:00,
2013-07-06 05:38:00,67.2,65.7,30.11,ESE,104,0.0,0.0,95,0.00,,,0.58,Wunderground v.1.15,2013-07-06 09:38:00,
2013-07-06 05:43:00,67.2,65.7,30.11,ESE,104,0.0,0.0,95,0.00,,,0.58,Wunderground v.1.15,2013-07-06 09:43:00,
2013-07-06 05:48:00,67.3,65.8,30.11,ESE,104,0.0,1.0,95,0.00,,,0.58,Wunderground v.1.15,2013-07-06 09:48:00,
2013-07-06 05:53:00,67.3,65.8,30.12,ESE,104,0.0,0.0,95,0.00,,,0.59,Wunderground v.1.15,2013-07-06 09:53:00,
2013-07-06 05:58:00,67.3,65.8,30.12,ESE,109,0.0,1.0,95,0.00,,,0.59,Wunderground v.1.15,2013-07-06 09:58:00,
2013-07-06 06:03:00,67.3,65.8,30.12,ESE,109,0.0,0.0,95,0.06,,,0.60,Wunderground v.1.15,2013-07-06 10:03:00,
2013-07-06 06:10:00,67.3,65.8,30.12,ESE,116,0.0,0.0,95,0.20,,,0.62,Wunderground v.1.15,2013-07-06 10:10:00,
2013-07-06 06:15:00,67.3,65.8,30.12,ESE,116,0.0,1.0,95,0.35,,,0.67,Wunderground v.1.15,2013-07-06 10:15:00,
2013-07-06 06:20:00,67.3,65.8,30.12,ESE,116,0.0,0.0,95,0.77,,,0.71,Wunderground v.1.15,2013-07-06 10:20:00,
2013-07-06 06:25:00,67.3,65.8,30.13,ESE,116,0.0,1.0,95,0.14,,,0.72,Wunderground v.1.15,2013-07-06 10:25:00,
2013-07-06 06:31:00,67.3,65.8,30.12,ENE,66,0.0,0.0,95,0.20,,,0.74,Wunderground v.1.15,2013-07-06 10:31:00,
2013-07-06 06:36:00,67.3,65.8,30.12,WNW,292,0.0,0.0,95,0.07,,,0.74,Wunderground v.1.15,2013-07-06 10:36:00,
2013-07-06 06:41:00,67.3,65.8,30.13,SSW,213,0.0,0.0,95,0.04,,,0.74,Wunderground v.1.15,2013-07-06 10:41:00,
2013-07-06 06:46:00,67.3,65.8,30.13,SSW,213,0.0,1.0,95,0.00,,,0.74,Wunderground v.1.15,2013-07-06 10:46:00,
2013-07-06 06:51:00,67.3,65.8,30.13,SSW,213,0.0,0.0,95,0.00,,,0.75,Wunderground v.1.15,2013-07-06 10:51:00,
2013-07-06 06:56:00,67.3,65.8,30.13,West,276,0.0,0.0,95,0.00,,,0.75,Wunderground v.1.15,2013-07-06 10:56:00,
2013-07-06 07:01:00,67.3,65.8,30.14,East,92,0.0,0.0,95,0.00,,,0.75,Wunderground v.1.15,2013-07-06 11:01:00,
2013-07-06 07:06:00,67.4,65.9,30.13,East,98,0.0,0.0,95,0.00,,,0.75,Wunderground v.1.15,2013-07-06 11:06:00,
2013-07-06 07:11:00,67.4,65.9,30.14,North,355,0.0,0.0,95,0.00,,,0.75,Wunderground v.1.15,2013-07-06 11:11:00,
2013-07-06 07:16:00,67.5,66.0,30.14,North,355,0.0,0.0,95,0.00,,,0.75,Wunderground v.1.15,2013-07-06 11:16:00,
2013-07-06 07:21:00,67.5,66.0,30.14,North,9,0.0,0.0,95,0.00,,,0.75,Wunderground v.1.15,2013-07-06 11:21:00,
2013-07-06 07:26:00,67.6,66.4,30.14,North,9,0.0,0.0,96,0.00,,,0.75,Wunderground v.1.15,2013-07-06 11:26:00,
2013-07-06 07:31:00,67.8,66.6,30.14,NNE,15,0.0,0.0,96,0.00,,,0.75,Wunderground v.1.15,2013-07-06 11:31:00,
2013-07-06 07:36:00,67.9,66.7,30.14,NNE,15,0.0,0.0,96,0.00,,,0.75,Wunderground v.1.15,2013-07-06 11:36:00,
2013-07-06 07:41:00,68.0,66.8,30.14,North,355,0.0,0.0,96,0.00,,,0.75,Wunderground v.1.15,2013-07-06 11:41:00,
2013-07-06 07:46:00,68.1,66.9,30.14,North,355,0.0,0.0,96,0.00,,,0.75,Wunderground v.1.15,2013-07-06 11:46:00,
2013-07-06 07:51:00,68.1,66.6,30.14,North,355,0.0,0.0,95,0.00,,,0.75,Wunderground v.1.15,2013-07-06 11:51:00,
2013-07-06 07:56:00,68.3,67.1,30.14,North,360,0.0,0.0,96,0.00,,,0.75,Wunderground v.1.15,2013-07-06 11:56:00,
2013-07-06 08:01:00,68.5,67.3,30.14,ENE,58,0.0,0.0,96,0.00,,,0.75,Wunderground v.1.15,2013-07-06 12:01:00,
2013-07-06 08:06:00,69.1,67.9,30.14,South,191,0.0,1.0,96,0.00,,,0.75,Wunderground v.1.15,2013-07-06 12:06:00,
2013-07-06 08:11:00,70.0,68.8,30.14,WNW,294,0.0,1.0,96,0.00,,,0.75,Wunderground v.1.15,2013-07-06 12:11:00,
2013-07-06 08:16:00,70.4,69.2,30.15,NNE,27,0.0,1.0,96,0.00,,,0.75,Wunderground v.1.15,2013-07-06 12:16:00,
2013-07-06 08:21:00,70.2,69.0,30.14,NNE,24,0.0,0.0,96,0.00,,,0.75,Wunderground v.1.15,2013-07-06 12:21:00,
2013-07-06 08:26:00,70.4,69.2,30.14,NNE,23,0.0,0.0,96,0.00,,,0.75,Wunderground v.1.15,2013-07-06 12:26:00,
2013-07-06 08:31:00,71.0,69.5,30.14,ESE,115,0.0,0.0,95,0.00,,,0.75,Wunderground v.1.15,2013-07-06 12:31:00,
2013-07-06 08:36:00,71.5,70.0,30.14,WSW,258,0.0,0.0,95,0.00,,,0.75,Wunderground v.1.15,2013-07-06 12:36:00,
2013-07-06 08:41:00,71.7,69.9,30.14,WNW,294,0.0,0.0,94,0.00,,,0.75,Wunderground v.1.15,2013-07-06 12:41:00,
2013-07-06 08:46:00,71.8,70.0,30.14,WNW,294,0.0,0.0,94,0.00,,,0.75,Wunderground v.1.15,2013-07-06 12:46:00,
2013-07-06 08:51:00,72.0,70.2,30.14,WNW,283,0.0,0.0,94,0.00,,,0.75,Wunderground v.1.15,2013-07-06 12:51:00,
2013-07-06 08:56:00,72.5,70.7,30.14,SE,146,0.0,1.0,94,0.00,,,0.75,Wunderground v.1.15,2013-07-06 12:56:00,
2013-07-06 09:01:00,72.6,70.5,30.14,NW,317,0.0,0.0,93,0.00,,,0.75,Wunderground v.1.15,2013-07-06 13:01:00,
2013-07-06 09:06:00,72.0,69.2,30.14,NE,51,0.0,5.0,91,0.00,,,0.75,Wunderground v.1.15,2013-07-06 13:06:00,
2013-07-06 09:11:00,71.3,68.5,30.14,NNE,27,0.0,2.0,91,0.00,,,0.75,Wunderground v.1.15,2013-07-06 13:11:00,
2013-07-06 09:16:00,70.9,67.8,30.14,SE,128,0.0,5.0,90,0.00,,,0.75,Wunderground v.1.15,2013-07-06 13:16:00,
2013-07-06 09:21:00,70.6,67.8,30.14,ESE,119,0.0,4.0,91,0.00,,,0.75,Wunderground v.1.15,2013-07-06 13:21:00,
2013-07-06 09:26:00,70.6,68.2,30.14,East,92,0.0,4.0,92,0.00,,,0.75,Wunderground v.1.15,2013-07-06 13:26:00,
2013-07-06 09:32:00,70.5,68.1,30.14,East,92,0.0,0.0,92,0.00,,,0.75,Wunderground v.1.15,2013-07-06 13:32:00,
2013-07-06 09:37:00,70.4,68.0,30.14,East,89,0.0,3.0,92,0.00,,,0.75,Wunderground v.1.15,2013-07-06 13:37:00,
2013-07-06 09:42:00,70.2,67.8,30.14,East,96,0.0,4.0,92,0.00,,,0.76,Wunderground v.1.15,2013-07-06 13:42:00,
2013-07-06 09:47:00,69.9,67.5,30.14,ENE,58,0.0,5.0,92,0.18,,,0.77,Wunderground v.1.15,2013-07-06 13:47:00,
2013-07-06 09:52:00,69.7,67.3,30.14,ESE,109,0.0,4.0,92,0.07,,,0.77,Wunderground v.1.15,2013-07-06 13:52:00,
2013-07-06 09:57:00,69.9,67.8,30.14,ESE,107,1.0,4.0,93,0.04,,,0.77,Wunderground v.1.15,2013-07-06 13:57:00,
2013-07-06 10:02:00,70.2,68.1,30.14,ENE,62,2.0,4.0,93,0.00,,,0.77,Wunderground v.1.15,2013-07-06 14:02:00,
2013-07-06 10:07:00,70.7,68.9,30.14,NE,54,2.0,5.0,94,0.00,,,0.77,Wunderground v.1.15,2013-07-06 14:07:00,
2013-07-06 10:12:00,70.6,68.5,30.14,NE,40,3.0,5.0,93,0.00,,,0.77,Wunderground v.1.15,2013-07-06 14:12:00,
2013-07-06 10:17:00,70.8,68.7,30.14,ENE,71,4.0,6.0,93,0.00,,,0.77,Wunderground v.1.15,2013-07-06 14:17:00,
2013-07-06 10:22:00,70.9,68.8,30.14,East,80,0.0,4.0,93,0.00,,,0.77,Wunderground v.1.15,2013-07-06 14:22:00,
2013-07-06 10:27:00,71.5,69.7,30.13,NE,52,6.0,7.0,94,0.00,,,0.77,Wunderground v.1.15,2013-07-06 14:27:00,
2013-07-06 10:32:00,72.3,70.5,30.13,NNE,24,4.0,6.0,94,0.00,,,0.77,Wunderground v.1.15,2013-07-06 14:32:00,
2013-07-06 10:37:00,72.6,70.1,30.13,NNE,26,0.0,8.0,92,0.00,,,0.77,Wunderground v.1.15,2013-07-06 14:37:00,
2013-07-06 10:42:00,73.6,71.4,30.13,ENE,66,2.0,4.0,93,0.00,,,0.77,Wunderground v.1.15,2013-07-06 14:42:00,
2013-07-06 10:47:00,73.8,70.4,30.13,NE,39,5.0,7.0,89,0.00,,,0.77,Wunderground v.1.15,2013-07-06 14:47:00,
2013-07-06 10:52:00,73.9,70.5,30.13,NE,39,7.0,9.0,89,0.00,,,0.77,Wunderground v.1.15,2013-07-06 14:52:00,
2013-07-06 10:57:00,74.0,69.9,30.13,East,95,2.0,10.0,87,0.00,,,0.77,Wunderground v.1.15,2013-07-06 14:57:00,
2013-07-06 11:02:00,74.3,70.2,30.13,ENE,75,5.0,6.0,87,0.00,,,0.77,Wunderground v.1.15,2013-07-06 15:02:00,
2013-07-06 11:07:00,74.4,69.9,30.13,ESE,117,1.0,6.0,86,0.00,,,0.77,Wunderground v.1.15,2013-07-06 15:07:00,
2013-07-06 11:12:00,74.9,70.8,30.14,NE,49,3.0,3.0,87,0.00,,,0.77,Wunderground v.1.15,2013-07-06 15:12:00,
2013-07-06 11:17:00,74.9,69.7,30.14,NE,48,0.0,8.0,84,0.00,,,0.77,Wunderground v.1.15,2013-07-06 15:17:00,
2013-07-06 11:22:00,74.7,69.9,30.14,NE,37,4.0,8.0,85,0.00,,,0.77,Wunderground v.1.15,2013-07-06 15:22:00,
2013-07-06 11:27:00,74.4,69.6,30.13,ENE,65,1.0,10.0,85,0.00,,,0.77,Wunderground v.1.15,2013-07-06 15:27:00,
2013-07-06 11:32:00,74.7,70.2,30.13,NE,55,5.0,7.0,86,0.00,,,0.77,Wunderground v.1.15,2013-07-06 15:32:00,
2013-07-06 11:37:00,74.4,69.2,30.14,NE,56,5.0,11.0,84,0.00,,,0.77,Wunderground v.1.15,2013-07-06 15:37:00,
2013-07-06 11:42:00,74.0,69.2,30.13,ESE,110,0.0,7.0,85,0.00,,,0.77,Wunderground v.1.15,2013-07-06 15:42:00,
2013-07-06 11:47:00,73.8,69.3,30.13,ENE,68,2.0,7.0,86,0.00,,,0.77,Wunderground v.1.15,2013-07-06 15:47:00,
2013-07-06 11:52:00,74.1,69.0,30.13,NE,53,7.0,9.0,84,0.00,,,0.77,Wunderground v.1.15,2013-07-06 15:52:00,
2013-07-06 11:57:00,74.4,69.2,30.13,ENE,75,0.0,9.0,84,0.00,,,0.77,Wunderground v.1.15,2013-07-06 15:57:00,
2013-07-06 12:03:00,74.8,69.3,30.13,ENE,66,4.0,5.0,83,0.00,,,0.77,Wunderground v.1.15,2013-07-06 16:03:00,
2013-07-06 12:08:00,74.9,69.4,30.13,South,186,0.0,10.0,83,0.00,,,0.77,Wunderground v.1.15,2013-07-06 16:08:00,
2013-07-06 12:14:00,74.9,68.7,30.13,ENE,65,3.0,9.0,81,0.00,,,0.77,Wunderground v.1.15,2013-07-06 16:14:00,
2013-07-06 12:19:00,75.3,69.4,30.13,East,81,0.0,9.0,82,0.00,,,0.77,Wunderground v.1.15,2013-07-06 16:19:00,
2013-07-06 12:24:00,75.5,68.9,30.13,ESE,105,6.0,12.0,80,0.00,,,0.77,Wunderground v.1.15,2013-07-06 16:24:00,
2013-07-06 12:29:00,75.0,69.1,30.13,North,360,1.0,12.0,82,0.00,,,0.77,Wunderground v.1.15,2013-07-06 16:29:00,
2013-07-06 12:35:00,74.5,68.3,30.12,SE,140,0.0,7.0,81,0.00,,,0.77,Wunderground v.1.15,2013-07-06 16:35:00,
2013-07-06 12:40:00,74.5,69.3,30.13,ENE,65,1.0,3.0,84,0.00,,,0.77,Wunderground v.1.15,2013-07-06 16:40:00,
2013-07-06 12:45:00,75.0,69.1,30.13,ESE,115,5.0,7.0,82,0.00,,,0.77,Wunderground v.1.15,2013-07-06 16:45:00,
2013-07-06 12:50:00,75.2,68.6,30.13,ESE,108,0.0,2.0,80,0.00,,,0.77,Wunderground v.1.15,2013-07-06 16:50:00,
2013-07-06 12:57:00,75.4,69.2,30.13,ESE,109,0.0,7.0,81,0.00,,,0.77,Wunderground v.1.15,2013-07-06 16:57:00,
2013-07-06 13:03:00,75.7,68.7,30.12,NE,38,0.0,4.0,79,0.00,,,0.77,Wunderground v.1.15,2013-07-06 17:03:00,
2013-07-06 13:09:00,76.2,70.3,30.12,WSW,256,3.0,4.0,82,0.00,,,0.77,Wunderground v.1.15,2013-07-06 17:09:00,
2013-07-06 13:14:00,76.4,69.0,30.11,ENE,74,2.0,4.0,78,0.00,,,0.77,Wunderground v.1.15,2013-07-06 17:14:00,
2013-07-06 13:19:00,76.1,69.8,30.11,ENE,66,2.0,8.0,81,0.00,,,0.77,Wunderground v.1.15,2013-07-06 17:19:00,
2013-07-06 13:24:00,76.3,69.7,30.11,North,5,3.0,4.0,80,0.00,,,0.77,Wunderground v.1.15,2013-07-06 17:24:00,
2013-07-06 13:30:00,76.7,69.3,30.11,ENE,60,5.0,5.0,78,0.00,,,0.77,Wunderground v.1.15,2013-07-06 17:30:00,
2013-07-06 13:36:00,76.9,69.5,30.10,East,90,2.0,6.0,78,0.00,,,0.77,Wunderground v.1.15,2013-07-06 17:36:00,
2013-07-06 13:41:00,76.7,69.3,30.10,NE,39,4.0,4.0,78,0.00,,,0.77,Wunderground v.1.15,2013-07-06 17:41:00,
2013-07-06 13:47:00,76.4,69.4,30.10,NNE,18,3.0,9.0,79,0.00,,,0.77,Wunderground v.1.15,2013-07-06 17:47:00,
2013-07-06 13:52:00,76.2,69.2,30.10,NE,40,0.0,2.0,79,0.00,,,0.77,Wunderground v.1.15,2013-07-06 17:52:00,
2013-07-06 13:57:00,76.0,69.0,30.10,NE,35,1.0,6.0,79,0.00,,,0.77,Wunderground v.1.15,2013-07-06 17:57:00,
2013-07-06 14:02:00,75.9,69.3,30.10,SE,129,4.0,4.0,80,0.00,,,0.77,Wunderground v.1.15,2013-07-06 18:02:00,
2013-07-06 14:07:00,75.9,68.5,30.10,West,263,0.0,4.0,78,0.00,,,0.77,Wunderground v.1.15,2013-07-06 18:07:00,
2013-07-06 14:13:00,76.1,69.8,30.10,SSW,192,0.0,3.0,81,0.00,,,0.77,Wunderground v.1.15,2013-07-06 18:13:00,
2013-07-06 14:18:00,75.9,69.3,30.10,NNE,22,3.0,9.0,80,0.00,,,0.77,Wunderground v.1.15,2013-07-06 18:18:00,
2013-07-06 14:24:00,75.5,68.2,30.10,North,11,1.0,5.0,78,0.00,,,0.77,Wunderground v.1.15,2013-07-06 18:24:00,
2013-07-06 14:29:00,75.3,67.6,30.09,NNE,21,3.0,9.0,77,0.00,,,0.77,Wunderground v.1.15,2013-07-06 18:29:00,
2013-07-06 14:34:00,75.5,68.9,30.09,NNW,334,4.0,6.0,80,0.00,,,0.77,Wunderground v.1.15,2013-07-06 18:34:00,
2013-07-06 14:39:00,75.4,68.1,30.09,ESE,117,0.0,11.0,78,0.00,,,0.77,Wunderground v.1.15,2013-07-06 18:39:00,
2013-07-06 14:45:00,75.1,68.5,30.09,NNE,28,6.0,8.0,80,0.00,,,0.77,Wunderground v.1.15,2013-07-06 18:45:00,
2013-07-06 14:50:00,74.7,68.1,30.09,NNE,22,4.0,4.0,80,0.00,,,0.77,Wunderground v.1.15,2013-07-06 18:50:00,
2013-07-06 14:55:00,74.2,68.0,30.09,NNE,28,0.0,5.0,81,0.00,,,0.77,Wunderground v.1.15,2013-07-06 18:55:00,
2013-07-06 15:01:00,74.2,68.3,30.09,NE,35,0.0,2.0,82,0.00,,,0.77,Wunderground v.1.15,2013-07-06 19:01:00,
2013-07-06 15:06:00,74.5,68.3,30.09,North,355,0.0,5.0,81,0.00,,,0.77,Wunderground v.1.15,2013-07-06 19:06:00,
2013-07-06 15:11:00,74.3,68.1,30.09,NNE,24,0.0,8.0,81,0.00,,,0.77,Wunderground v.1.15,2013-07-06 19:11:00,
2013-07-06 15:17:00,74.1,67.5,30.08,NE,36,1.0,8.0,80,0.00,,,0.77,Wunderground v.1.15,2013-07-06 19:17:00,
2013-07-06 15:22:00,74.3,68.1,30.08,NE,55,2.0,8.0,81,0.00,,,0.77,Wunderground v.1.15,2013-07-06 19:22:00,
2013-07-06 15:27:00,74.7,68.5,30.08,NE,40,1.0,8.0,81,0.00,,,0.77,Wunderground v.1.15,2013-07-06 19:27:00,
2013-07-06 15:32:00,74.9,68.3,30.08,ENE,74,0.0,7.0,80,0.00,,,0.77,Wunderground v.1.15,2013-07-06 19:32:00,
2013-07-06 15:37:00,75.0,68.4,30.08,NE,42,1.0,8.0,80,0.00,,,0.77,Wunderground v.1.15,2013-07-06 19:37:00,
2013-07-06 15:43:00,75.1,68.5,30.07,NE,53,3.0,5.0,80,0.00,,,0.77,Wunderground v.1.15,2013-07-06 19:43:00,
2013-07-06 15:48:00,75.2,68.6,30.07,North,355,3.0,8.0,80,0.00,,,0.77,Wunderground v.1.15,2013-07-06 19:48:00,
2013-07-06 15:53:00,75.3,68.7,30.07,NNE,22,9.0,10.0,80,0.00,,,0.78,Wunderground v.1.15,2013-07-06 19:53:00,
2013-07-06 15:58:00,75.1,68.1,30.07,WNW,295,0.0,10.0,79,0.00,,,0.78,Wunderground v.1.15,2013-07-06 19:58:00,
2013-07-06 16:04:00,75.1,67.8,30.07,NW,307,3.0,8.0,78,0.00,,,0.78,Wunderground v.1.15,2013-07-06 20:04:00,
2013-07-06 16:09:00,74.8,67.8,30.07,North,360,2.0,8.0,79,0.00,,,0.78,Wunderground v.1.15,2013-07-06 20:09:00,
2013-07-06 16:14:00,74.6,68.0,30.07,NE,49,0.0,4.0,80,0.00,,,0.78,Wunderground v.1.15,2013-07-06 20:14:00,
2013-07-06 16:19:00,74.4,68.2,30.07,NE,43,5.0,5.0,81,0.00,,,0.78,Wunderground v.1.15,2013-07-06 20:19:00,
2013-07-06 16:24:00,74.3,67.7,30.07,ESE,117,0.0,4.0,80,0.00,,,0.78,Wunderground v.1.15,2013-07-06 20:24:00,
2013-07-06 16:29:00,74.4,67.8,30.07,NE,51,0.0,6.0,80,0.00,,,0.78,Wunderground v.1.15,2013-07-06 20:29:00,
2013-07-06 16:34:00,74.5,67.9,30.07,NNE,29,7.0,7.0,80,0.00,,,0.78,Wunderground v.1.15,2013-07-06 20:34:00,
2013-07-06 16:40:00,74.5,68.3,30.07,NNE,24,0.0,1.0,81,0.00,,,0.78,Wunderground v.1.15,2013-07-06 20:40:00,
2013-07-06 16:45:00,74.2,68.0,30.07,East,86,0.0,6.0,81,0.00,,,0.78,Wunderground v.1.15,2013-07-06 20:45:00,
2013-07-06 16:52:00,74.0,67.8,30.07,NE,38,4.0,5.0,81,0.00,,,0.78,Wunderground v.1.15,2013-07-06 20:52:00,
2013-07-06 16:57:00,73.8,67.6,30.07,NNE,23,2.0,5.0,81,0.00,,,0.78,Wunderground v.1.15,2013-07-06 20:57:00,
2013-07-06 17:02:00,73.8,67.6,30.06,NE,49,2.0,5.0,81,0.00,,,0.78,Wunderground v.1.15,2013-07-06 21:02:00,
2013-07-06 17:08:00,73.8,67.6,30.07,NE,55,0.0,5.0,81,0.00,,,0.78,Wunderground v.1.15,2013-07-06 21:08:00,
2013-07-06 17:14:00,74.0,67.8,30.07,NNE,30,1.0,5.0,81,0.00,,,0.78,Wunderground v.1.15,2013-07-06 21:14:00,
2013-07-06 17:19:00,74.1,67.9,30.07,NE,53,0.0,5.0,81,0.00,,,0.78,Wunderground v.1.15,2013-07-06 21:19:00,
2013-07-06 17:24:00,74.2,68.0,30.07,NE,51,2.0,4.0,81,0.00,,,0.78,Wunderground v.1.15,2013-07-06 21:24:00,
2013-07-06 17:29:00,74.5,68.6,30.07,North,5,0.0,4.0,82,0.00,,,0.78,Wunderground v.1.15,2013-07-06 21:29:00,
2013-07-06 17:35:00,74.8,69.3,30.07,North,5,0.0,1.0,83,0.00,,,0.78,Wunderground v.1.15,2013-07-06 21:35:00,
2013-07-06 17:42:00,74.9,68.3,30.06,North,5,0.0,1.0,80,0.00,,,0.78,Wunderground v.1.15,2013-07-06 21:42:00,
2013-07-06 17:47:00,75.1,68.9,30.06,North,5,0.0,3.0,81,0.00,,,0.78,Wunderground v.1.15,2013-07-06 21:47:00,
2013-07-06 17:52:00,75.1,68.1,30.06,ENE,69,0.0,1.0,79,0.00,,,0.78,Wunderground v.1.15,2013-07-06 21:52:00,
2013-07-06 17:57:00,75.3,69.1,30.06,ENE,69,0.0,1.0,81,0.00,,,0.78,Wunderground v.1.15,2013-07-06 21:57:00,
2013-07-06 18:02:00,75.5,68.9,30.06,ENE,59,0.0,3.0,80,0.00,,,0.78,Wunderground v.1.15,2013-07-06 22:02:00,
2013-07-06 18:07:00,75.4,68.4,30.06,ESE,113,2.0,5.0,79,0.00,,,0.78,Wunderground v.1.15,2013-07-06 22:07:00,
2013-07-06 18:13:00,75.5,68.5,30.06,ENE,63,0.0,1.0,79,0.00,,,0.78,Wunderground v.1.15,2013-07-06 22:13:00,
2013-07-06 18:19:00,75.7,68.7,30.06,ENE,63,0.0,1.0,79,0.00,,,0.78,Wunderground v.1.15,2013-07-06 22:19:00,
2013-07-06 18:24:00,75.8,68.4,30.06,ENE,74,0.0,2.0,78,0.00,,,0.78,Wunderground v.1.15,2013-07-06 22:24:00,
2013-07-06 18:31:00,76.1,69.1,30.06,ENE,74,0.0,0.0,79,0.00,,,0.78,Wunderground v.1.15,2013-07-06 22:31:00,
2013-07-06 18:36:00,76.2,69.6,30.06,ENE,74,0.0,1.0,80,0.00,,,0.78,Wunderground v.1.15,2013-07-06 22:36:00,
2013-07-06 18:41:00,76.5,69.9,30.06,WSW,254,0.0,0.0,80,0.00,,,0.78,Wunderground v.1.15,2013-07-06 22:41:00,
2013-07-06 18:47:00,76.6,70.0,30.06,WSW,248,0.0,0.0,80,0.00,,,0.78,Wunderground v.1.15,2013-07-06 22:47:00,
2013-07-06 18:52:00,76.5,69.9,30.06,NNE,16,0.0,3.0,80,0.00,,,0.78,Wunderground v.1.15,2013-07-06 22:52:00,
2013-07-06 18:57:00,76.3,69.7,30.06,NE,48,0.0,3.0,80,0.00,,,0.78,Wunderground v.1.15,2013-07-06 22:57:00,
2013-07-06 19:02:00,76.1,68.7,30.07,ENE,61,0.0,0.0,78,0.00,,,0.78,Wunderground v.1.15,2013-07-06 23:02:00,
2013-07-06 19:08:00,76.0,68.6,30.07,SW,233,0.0,0.0,78,0.00,,,0.78,Wunderground v.1.15,2013-07-06 23:08:00,
2013-07-06 19:14:00,76.0,69.4,30.07,SW,233,0.0,0.0,80,0.00,,,0.78,Wunderground v.1.15,2013-07-06 23:14:00,
2013-07-06 19:19:00,76.0,69.0,30.07,SW,233,0.0,0.0,79,0.00,,,0.78,Wunderground v.1.15,2013-07-06 23:19:00,
2013-07-06 19:24:00,75.9,68.9,30.07,SSW,200,0.0,0.0,79,0.00,,,0.78,Wunderground v.1.15,2013-07-06 23:24:00,
2013-07-06 19:29:00,75.8,69.2,30.07,SSW,200,0.0,1.0,80,0.00,,,0.78,Wunderground v.1.15,2013-07-06 23:29:00,
2013-07-06 19:34:00,75.7,69.8,30.07,SSW,200,0.0,0.0,82,0.00,,,0.78,Wunderground v.1.15,2013-07-06 23:34:00,
2013-07-06 19:39:00,75.5,69.6,30.07,South,171,0.0,0.0,82,0.00,,,0.78,Wunderground v.1.15,2013-07-06 23:39:00,
2013-07-06 19:46:00,75.3,69.4,30.07,South,171,0.0,1.0,82,0.00,,,0.78,Wunderground v.1.15,2013-07-06 23:46:00,
2013-07-06 19:51:00,75.1,69.2,30.07,South,171,0.0,0.0,82,0.00,,,0.78,Wunderground v.1.15,2013-07-06 23:51:00,
2013-07-06 19:57:00,74.9,69.0,30.07,South,171,0.0,0.0,82,0.00,,,0.78,Wunderground v.1.15,2013-07-06 23:57:00,
2013-07-06 20:02:00,74.7,69.2,30.07,SW,233,0.0,0.0,83,0.00,,,0.78,Wunderground v.1.15,2013-07-07 00:02:00,
2013-07-06 20:07:00,74.4,68.9,30.07,NNE,14,0.0,0.0,83,0.00,,,0.78,Wunderground v.1.15,2013-07-07 00:07:00,
2013-07-06 20:12:00,74.2,69.1,30.07,NNE,14,0.0,0.0,84,0.00,,,0.78,Wunderground v.1.15,2013-07-07 00:12:00,
2013-07-06 20:18:00,73.9,68.4,30.07,North,10,0.0,0.0,83,0.00,,,0.78,Wunderground v.1.15,2013-07-07 00:18:00,
2013-07-06 20:23:00,73.7,68.6,30.07,North,10,0.0,0.0,84,0.00,,,0.78,Wunderground v.1.15,2013-07-07 00:23:00,
2013-07-06 20:28:00,73.3,68.2,30.07,NE,44,0.0,5.0,84,0.00,,,0.78,Wunderground v.1.15,2013-07-07 00:28:00,
2013-07-06 20:33:00,73.0,68.2,30.07,ESE,105,0.0,0.0,85,0.00,,,0.78,Wunderground v.1.15,2013-07-07 00:33:00,
2013-07-06 20:39:00,72.8,68.0,30.07,NNE,27,0.0,0.0,85,0.00,,,0.78,Wunderground v.1.15,2013-07-07 00:39:00,
2013-07-06 20:44:00,72.4,68.0,30.07,NNE,22,0.0,0.0,86,0.00,,,0.78,Wunderground v.1.15,2013-07-07 00:44:00,
2013-07-06 20:49:00,72.1,68.0,30.07,NNE,22,0.0,0.0,87,0.00,,,0.78,Wunderground v.1.15,2013-07-07 00:49:00,
2013-07-06 20:54:00,71.8,67.4,30.07,ENE,62,0.0,0.0,86,0.00,,,0.78,Wunderground v.1.15,2013-07-07 00:54:00,
2013-07-06 21:00:00,71.7,67.6,30.07,East,88,0.0,0.0,87,0.00,,,0.78,Wunderground v.1.15,2013-07-07 01:00:00,
2013-07-06 21:06:00,71.5,67.4,30.07,East,95,0.0,0.0,87,0.00,,,0.78,Wunderground v.1.15,2013-07-07 01:06:00,
2013-07-06 21:11:00,71.4,67.3,30.07,ESE,105,0.0,0.0,87,0.00,,,0.78,Wunderground v.1.15,2013-07-07 01:11:00,
2013-07-06 21:16:00,71.3,67.6,30.07,ESE,105,0.0,1.0,88,0.00,,,0.78,Wunderground v.1.15,2013-07-07 01:16:00,
2013-07-06 21:22:00,71.3,67.6,30.08,ESE,111,0.0,0.0,88,0.00,,,0.78,Wunderground v.1.15,2013-07-07 01:22:00,
2013-07-06 21:28:00,71.2,67.8,30.08,SSE,158,0.0,0.0,89,0.00,,,0.78,Wunderground v.1.15,2013-07-07 01:28:00,
2013-07-06 21:33:00,71.1,67.7,30.08,SSE,158,0.0,0.0,89,0.00,,,0.78,Wunderground v.1.15,2013-07-07 01:33:00,
2013-07-06 21:39:00,70.9,67.5,30.08,SSE,158,0.0,1.0,89,0.00,,,0.78,Wunderground v.1.15,2013-07-07 01:39:00,
2013-07-06 21:44:00,70.8,67.4,30.08,SW,223,0.0,3.0,89,0.00,,,0.78,Wunderground v.1.15,2013-07-07 01:44:00,
2013-07-06 21:49:00,70.7,67.3,30.08,SSW,210,0.0,3.0,89,0.00,,,0.79,Wunderground v.1.15,2013-07-07 01:49:00,
2013-07-06 21:54:00,70.7,67.6,30.08,SSW,192,0.0,1.0,90,0.12,,,0.80,Wunderground v.1.15,2013-07-07 01:54:00,
2013-07-06 21:59:00,70.7,67.9,30.08,South,190,0.0,1.0,91,0.11,,,0.81,Wunderground v.1.15,2013-07-07 01:59:00,
2013-07-06 22:06:00,70.6,67.8,30.09,ENE,60,0.0,1.0,91,0.10,,,0.82,Wunderground v.1.15,2013-07-07 02:06:00,
2013-07-06 22:11:00,70.5,67.7,30.10,SSW,211,3.0,5.0,91,0.16,,,0.84,Wunderground v.1.15,2013-07-07 02:11:00,
2013-07-06 22:16:00,70.2,67.4,30.10,SSW,200,0.0,5.0,91,0.51,,,0.89,Wunderground v.1.15,2013-07-07 02:16:00,
2013-07-06 22:21:00,70.1,67.7,30.10,SW,226,0.0,1.0,92,0.32,,,0.91,Wunderground v.1.15,2013-07-07 02:21:00,
2013-07-06 22:26:00,70.0,67.6,30.10,SW,219,0.0,2.0,92,0.56,,,0.97,Wunderground v.1.15,2013-07-07 02:26:00,
2013-07-06 22:31:00,69.9,67.5,30.10,SW,219,0.0,0.0,92,1.17,,,1.04,Wunderground v.1.15,2013-07-07 02:31:00,
2013-07-06 22:37:00,69.9,67.5,30.11,SW,219,0.0,0.0,92,0.96,,,1.11,Wunderground v.1.15,2013-07-07 02:37:00,
2013-07-06 22:42:00,69.9,67.8,30.11,SW,219,0.0,0.0,93,1.39,,,1.34,Wunderground v.1.15,2013-07-07 02:42:00,
2013-07-06 22:47:00,69.9,67.8,30.12,SW,219,0.0,0.0,93,1.28,,,1.48,Wunderground v.1.15,2013-07-07 02:47:00,
2013-07-06 22:53:00,69.8,67.7,30.11,SW,219,0.0,0.0,93,0.57,,,1.63,Wunderground v.1.15,2013-07-07 02:53:00,
2013-07-06 22:59:00,69.7,67.6,30.11,SW,219,0.0,0.0,93,0.10,,,1.64,Wunderground v.1.15,2013-07-07 02:59:00,
2013-07-06 23:05:00,69.5,67.4,30.11,SW,219,0.0,0.0,93,0.05,,,1.64,Wunderground v.1.15,2013-07-07 03:05:00,
2013-07-06 23:11:00,69.5,67.7,30.11,SW,219,0.0,0.0,94,0.00,,,1.64,Wunderground v.1.15,2013-07-07 03:11:00,
2013-07-06 23:17:00,69.4,67.6,30.11,SW,219,0.0,0.0,94,0.00,,,1.64,Wunderground v.1.15,2013-07-07 03:17:00,
2013-07-06 23:22:00,69.3,67.5,30.10,SW,219,0.0,0.0,94,0.00,,,1.64,Wunderground v.1.15,2013-07-07 03:22:00,
2013-07-06 23:27:00,69.2,67.4,30.11,SW,219,0.0,0.0,94,0.00,,,1.64,Wunderground v.1.15,2013-07-07 03:27:00,
2013-07-06 23:34:00,69.1,67.3,30.11,SW,219,0.0,0.0,94,0.00,,,1.64,Wunderground v.1.15,2013-07-07 03:34:00,
2013-07-06 23:39:00,69.0,67.2,30.11,SW,219,0.0,0.0,94,0.00,,,1.64,Wunderground v.1.15,2013-07-07 03:39:00,
2013-07-06 23:45:00,68.9,67.1,30.11,SW,219,0.0,0.0,94,0.00,,,1.64,Wunderground v.1.15,2013-07-07 03:45:00,
2013-07-06 23:50:00,68.8,67.0,30.11,SW,219,0.0,0.0,94,0.00,,,1.64,Wunderground v.1.15,2013-07-07 03:50:00,
2013-07-06 23:56:00,68.8,67.0,30.12,SW,215,0.0,0.0,94,0.00,,,1.64,Wunderground v.1.15,2013-07-07 03:56:00,